createdAt,value
2022-12-17T00:04:15.693Z,27.17
2022-12-17T00:09:32.851Z,27.75
2022-12-17T00:14:53.632Z,27.15
2022-12-17T00:20:10.746Z,25.90
2022-12-17T00:25:27.875Z,26.83
2022-12-17T00:30:47.516Z,33.15
2022-12-17T00:36:06.497Z,31.67
2022-12-17T00:41:23.456Z,30.48
2022-12-17T00:46:43.137Z,32.78
2022-12-17T00:52:00.257Z,27.17
2022-12-17T00:57:17.408Z,29.15
2022-12-17T01:02:37.203Z,32.63
2022-12-17T01:07:56.283Z,27.67
2022-12-17T01:13:13.362Z,26.42
2022-12-17T01:18:35.224Z,28.20
2022-12-17T01:23:52.240Z,28.33
2022-12-17T01:29:09.183Z,26.85
2022-12-17T01:34:28.832Z,26.83
2022-12-17T01:39:45.792Z,27.77
2022-12-17T01:45:03.992Z,28.70
2022-12-17T01:50:23.952Z,29.27
2022-12-17T01:55:40.938Z,31.13
2022-12-17T02:00:57.916Z,34.22
2022-12-17T02:06:21.882Z,30.17
2022-12-17T02:11:41.581Z,35.05
2022-12-17T02:17:00.047Z,27.90
2022-12-17T02:22:32.552Z,23.77
2022-12-17T02:27:52.280Z,19.73
2022-12-17T02:33:09.964Z,15.25
2022-12-17T02:38:33.729Z,13.57
2022-12-17T02:43:53.352Z,13.40
2022-12-17T02:49:10.409Z,12.30
2022-12-17T02:54:27.405Z,9.38
2022-12-17T02:59:49.301Z,5.00
2022-12-17T03:05:21.383Z,5.93
2022-12-17T03:10:43.256Z,8.25
2022-12-17T03:16:02.729Z,4.65
2022-12-17T03:21:19.921Z,4.90
2022-12-17T03:26:36.960Z,6.15
2022-12-17T03:31:56.660Z,5.65
2022-12-17T03:37:13.716Z,6.53
2022-12-17T03:42:30.728Z,6.55
2022-12-17T03:47:50.492Z,4.30
2022-12-17T03:53:07.467Z,5.28
2022-12-17T03:58:24.542Z,5.05
2022-12-17T04:03:44.312Z,4.38
2022-12-17T04:09:01.359Z,6.22
2022-12-17T04:14:18.401Z,5.38
2022-12-17T04:19:38.049Z,6.18
2022-12-17T04:24:55.079Z,6.40
2022-12-17T04:30:12.109Z,7.53
2022-12-17T04:35:31.834Z,8.85
2022-12-17T04:40:54.384Z,10.77
2022-12-17T04:46:11.605Z,7.95
2022-12-17T04:51:34.199Z,9.20
2022-12-17T04:56:51.347Z,12.68
2022-12-17T05:02:08.497Z,14.52
2022-12-17T05:07:28.180Z,15.90
2022-12-17T05:12:45.224Z,17.13
2022-12-17T05:18:02.228Z,17.60
2022-12-17T05:23:23.188Z,16.77
2022-12-17T05:28:40.160Z,24.85
2022-12-17T05:33:57.368Z,19.98
2022-12-17T05:39:17.170Z,24.23
2022-12-17T05:44:34.422Z,22.47
2022-12-17T05:49:51.400Z,23.48
2022-12-17T05:55:11.844Z,26.42
2022-12-17T06:00:29.440Z,29.38
2022-12-17T06:05:46.446Z,26.83
2022-12-17T06:11:06.144Z,27.42
2022-12-17T06:16:23.252Z,30.58
2022-12-17T06:21:40.421Z,27.00
2022-12-17T06:27:00.115Z,26.20
2022-12-17T06:32:17.109Z,28.67
2022-12-17T06:37:34.157Z,27.08
2022-12-17T06:42:53.872Z,29.80
2022-12-17T06:48:16.661Z,26.88
2022-12-17T06:53:33.825Z,24.70
2022-12-17T06:58:53.656Z,25.73
2022-12-17T07:04:10.510Z,26.90
2022-12-17T07:09:27.569Z,28.80
2022-12-17T07:14:47.268Z,27.48
2022-12-17T07:20:07.004Z,25.33
2022-12-17T07:25:24.159Z,27.85
2022-12-17T07:30:43.843Z,27.05
2022-12-17T07:36:00.980Z,27.35
2022-12-17T07:41:17.961Z,27.88
2022-12-17T07:46:37.621Z,28.15
2022-12-17T07:51:54.597Z,26.25
2022-12-17T07:57:11.565Z,29.33
2022-12-17T08:02:31.383Z,27.20
2022-12-17T08:07:48.570Z,26.77
2022-12-17T08:13:14.192Z,25.30
2022-12-17T08:18:34.213Z,22.23
2022-12-17T08:23:51.252Z,25.50
2022-12-17T08:29:08.228Z,24.25
2022-12-17T08:34:27.951Z,21.58
2022-12-17T08:39:44.937Z,22.50
2022-12-17T08:45:01.941Z,22.10
2022-12-17T08:50:22.113Z,20.27
2022-12-17T08:55:39.340Z,19.00
2022-12-17T09:00:57.245Z,21.60
2022-12-17T09:06:17.332Z,20.05
2022-12-17T09:11:34.345Z,20.10
2022-12-17T09:16:51.423Z,22.13
2022-12-17T09:22:11.188Z,20.55
2022-12-17T09:27:28.245Z,21.02
2022-12-17T09:32:46.125Z,18.85
2022-12-17T09:38:09.624Z,19.27
2022-12-17T09:43:32.085Z,20.40
2022-12-17T09:48:52.213Z,18.65
2022-12-17T09:54:11.991Z,19.67
2022-12-17T09:59:34.409Z,19.23
2022-12-17T10:04:53.350Z,21.27
2022-12-17T10:10:19.797Z,23.77
2022-12-17T10:15:36.917Z,28.27
2022-12-17T10:20:54.762Z,25.85
2022-12-17T10:26:14.417Z,17.10
2022-12-17T10:31:33.818Z,24.02
2022-12-17T10:36:50.958Z,17.77
2022-12-17T10:42:10.740Z,17.13
2022-12-17T10:47:28.826Z,21.97
2022-12-17T10:52:47.190Z,18.63
2022-12-17T10:58:07.656Z,15.93
2022-12-17T11:03:38.671Z,18.70
2022-12-17T11:09:02.469Z,20.40
2022-12-17T11:14:24.333Z,17.13
2022-12-17T11:19:44.652Z,18.88
2022-12-17T11:25:04.097Z,23.23
2022-12-17T11:30:30.746Z,22.48
2022-12-17T11:35:51.724Z,25.50
2022-12-17T11:41:10.260Z,18.80
2022-12-17T11:46:37.004Z,20.23
2022-12-17T11:51:56.608Z,17.70
2022-12-17T11:57:17.632Z,21.15
2022-12-17T12:02:44.297Z,23.20
2022-12-17T12:08:06.369Z,17.67
2022-12-17T12:13:28.777Z,17.52
2022-12-17T12:18:50.686Z,18.50
2022-12-17T12:24:14.914Z,20.02
2022-12-17T12:29:40.606Z,17.33
2022-12-17T12:35:00.925Z,17.10
2022-12-17T12:40:21.228Z,19.27
2022-12-17T12:45:46.882Z,20.30
2022-12-17T12:51:10.049Z,20.50
2022-12-17T12:56:42.036Z,19.80
2022-12-17T13:01:59.315Z,20.13
2022-12-17T13:07:06.956Z,20.75
2022-12-17T13:12:14.048Z,18.67
2022-12-17T13:17:28.492Z,20.75
2022-12-17T13:22:36.633Z,17.13
2022-12-17T13:27:42.589Z,15.23
2022-12-17T13:32:50.850Z,17.25
2022-12-17T13:38:02.127Z,20.25
2022-12-17T13:43:06.863Z,23.80
2022-12-17T13:48:20.176Z,25.88
2022-12-17T13:53:27.681Z,21.17
2022-12-17T13:58:33.195Z,25.70
2022-12-17T14:04:06.636Z,25.35
2022-12-17T14:09:05.905Z,20.30
2022-12-17T14:14:23.456Z,18.08
2022-12-17T14:19:29.566Z,20.08
2022-12-17T14:24:37.110Z,82.25
2022-12-17T14:29:49.422Z,20.25
2022-12-17T14:35:00.197Z,18.10
2022-12-17T14:40:08.919Z,26.42
2022-12-17T14:45:25.687Z,18.38
2022-12-17T14:50:32.493Z,18.08
2022-12-17T14:55:41.501Z,18.67
2022-12-17T15:00:47.528Z,20.50
2022-12-17T15:05:54.505Z,21.95
2022-12-17T15:11:05.075Z,20.83
2022-12-17T15:16:11.141Z,19.73
2022-12-17T15:21:23.090Z,20.08
2022-12-17T15:26:30.472Z,20.38
2022-12-17T15:31:35.861Z,20.10
2022-12-17T15:36:40.824Z,23.05
2022-12-17T15:42:00.449Z,23.75
2022-12-17T15:47:05.248Z,22.75
2022-12-17T15:52:10.173Z,24.13
2022-12-17T15:57:18.962Z,21.55
2022-12-17T16:02:23.945Z,22.38
2022-12-17T16:07:28.891Z,23.60
2022-12-17T16:12:36.521Z,27.42
2022-12-17T16:17:41.369Z,20.73
2022-12-17T16:22:46.478Z,20.15
2022-12-17T16:27:59.498Z,21.52
2022-12-17T16:33:04.431Z,18.48
2022-12-17T16:38:09.246Z,20.92
2022-12-17T16:43:16.745Z,19.17
2022-12-17T16:48:22.283Z,19.52
2022-12-17T16:53:27.191Z,20.05
2022-12-17T16:58:35.178Z,23.00
2022-12-17T17:03:42.101Z,20.38
2022-12-17T17:08:46.932Z,19.58
2022-12-17T17:13:54.858Z,16.85
2022-12-17T17:18:59.710Z,16.55
2022-12-17T17:24:07.264Z,22.73
2022-12-17T17:29:14.816Z,16.70
2022-12-17T17:34:19.570Z,22.17
2022-12-17T17:39:24.320Z,23.23
2022-12-17T17:44:33.024Z,21.00
2022-12-17T17:49:37.822Z,20.98
2022-12-17T17:54:42.759Z,22.58
2022-12-17T17:59:50.160Z,21.25
2022-12-17T18:04:55.083Z,22.55
2022-12-17T18:09:59.989Z,18.83
2022-12-17T18:15:16.854Z,25.90
2022-12-17T18:20:22.761Z,25.67
2022-12-17T18:25:28.872Z,20.52
2022-12-17T18:30:40.702Z,21.02
2022-12-17T18:35:45.537Z,21.88
2022-12-17T18:40:50.391Z,22.80
2022-12-17T18:46:06.684Z,17.60
2022-12-17T18:51:11.451Z,16.88
2022-12-17T18:56:31.678Z,18.60
2022-12-17T19:01:46.932Z,18.10
2022-12-17T19:06:53.830Z,16.70
2022-12-17T19:11:58.970Z,24.35
2022-12-17T19:17:06.421Z,31.15
2022-12-17T19:22:12.124Z,30.90
2022-12-17T19:27:16.848Z,18.88
2022-12-17T19:32:24.997Z,19.77
2022-12-17T19:37:29.748Z,19.55
2022-12-17T19:42:37.725Z,23.33
2022-12-17T19:47:45.616Z,24.40
2022-12-17T19:52:50.379Z,22.42
2022-12-17T19:57:56.921Z,24.92
2022-12-17T20:03:04.454Z,21.40
2022-12-17T20:08:09.744Z,24.27
2022-12-17T20:13:14.585Z,31.75
2022-12-17T20:18:22.067Z,27.23
2022-12-17T20:23:26.936Z,19.35
2022-12-17T20:28:31.937Z,33.63
2022-12-17T20:33:39.569Z,21.10
2022-12-17T20:38:44.621Z,21.27
2022-12-17T20:43:49.803Z,20.15
2022-12-17T20:48:57.096Z,21.80
2022-12-17T20:54:03.199Z,25.55
2022-12-17T20:59:08.853Z,23.45
2022-12-17T21:04:17.217Z,18.55
2022-12-17T21:09:23.013Z,19.42
2022-12-17T21:14:33.668Z,22.17
2022-12-17T21:19:43.147Z,20.33
2022-12-17T21:24:47.875Z,21.23
2022-12-17T21:29:52.856Z,21.52
2022-12-17T21:35:00.299Z,25.95
2022-12-17T21:40:05.044Z,27.52
2022-12-17T21:45:10.308Z,25.45
2022-12-17T21:50:18.059Z,23.88
2022-12-17T21:55:22.770Z,21.80
2022-12-17T22:00:28.105Z,20.55
2022-12-17T22:05:35.804Z,19.85
2022-12-17T22:10:49.043Z,18.05
2022-12-17T22:15:54.573Z,23.67
2022-12-17T22:21:03.148Z,21.75
2022-12-17T22:26:11.188Z,22.30
2022-12-17T22:31:28.605Z,20.25
2022-12-17T22:38:45.472Z,23.90
2022-12-17T22:44:43.046Z,19.58
2022-12-17T22:47:38.600Z,20.48
2022-12-17T22:52:45.982Z,19.65
2022-12-17T22:57:51.248Z,18.00
2022-12-17T23:02:56.819Z,24.20
2022-12-17T23:08:04.360Z,22.85
2022-12-17T23:13:09.063Z,22.98
2022-12-17T23:18:13.804Z,29.00
2022-12-17T23:23:21.283Z,38.22
2022-12-17T23:28:25.956Z,31.42
2022-12-17T23:33:30.640Z,35.95
2022-12-17T23:38:38.585Z,30.08
2022-12-17T23:43:43.492Z,25.33
2022-12-17T23:48:48.736Z,29.98
2022-12-17T23:53:56.192Z,36.72
2022-12-17T23:59:01.638Z,33.17
